createdAt,value
2019-05-25T00:00:06.539Z,62.29
2019-05-25T00:01:06.501Z,61.88
2019-05-25T00:02:06.525Z,61.88
2019-05-25T00:03:06.561Z,61.57
2019-05-25T00:04:06.476Z,61.98
2019-05-25T00:05:06.501Z,60.86
2019-05-25T00:06:06.445Z,61.47
2019-05-25T00:07:06.445Z,61.27
2019-05-25T00:08:06.420Z,60.89
2019-05-25T00:09:06.436Z,60.89
2019-05-25T00:10:06.441Z,61.80
2019-05-25T00:11:06.404Z,62.21
2019-05-25T00:12:06.398Z,62.52
2019-05-25T00:13:06.370Z,62.42
2019-05-25T00:14:06.369Z,61.50
2019-05-25T00:15:06.400Z,61.50
2019-05-25T00:16:06.343Z,61.40
2019-05-25T00:17:06.377Z,61.80
2019-05-25T00:18:06.320Z,60.78
2019-05-25T00:19:06.330Z,61.12
2019-05-25T00:20:06.325Z,61.63
2019-05-25T00:21:06.295Z,61.22
2019-05-25T00:22:06.290Z,62.35
2019-05-25T00:23:06.299Z,61.32
2019-05-25T00:24:12.233Z,62.04
2019-05-25T00:25:07.287Z,62.35
2019-05-25T00:26:06.249Z,62.14
2019-05-25T00:27:06.231Z,62.35
2019-05-25T00:28:06.230Z,63.16
2019-05-25T00:29:06.214Z,62.04
2019-05-25T00:30:06.230Z,61.94
2019-05-25T00:31:06.197Z,62.35
2019-05-25T00:32:06.201Z,61.73
2019-05-25T00:33:06.171Z,62.35
2019-05-25T00:34:06.173Z,62.99
2019-05-25T00:35:06.201Z,62.88
2019-05-25T00:36:06.147Z,62.88
2019-05-25T00:37:06.126Z,62.58
2019-05-25T00:38:06.110Z,62.37
2019-05-25T00:39:06.129Z,61.87
2019-05-25T00:40:06.120Z,62.27
2019-05-25T00:41:06.109Z,62.07
2019-05-25T00:42:06.060Z,62.78
2019-05-25T00:43:06.048Z,62.68
2019-05-25T00:44:06.027Z,62.48
2019-05-25T00:45:06.028Z,63.19
2019-05-25T00:46:06.043Z,62.27
2019-05-25T00:47:06.008Z,62.07
2019-05-25T00:48:06.039Z,62.48
2019-05-25T00:49:05.998Z,62.68
2019-05-25T00:50:06.009Z,62.48
2019-05-25T00:51:06.008Z,63.60
2019-05-25T00:52:05.961Z,62.58
2019-05-25T00:53:05.946Z,62.58
2019-05-25T00:54:05.928Z,62.71
2019-05-25T00:55:05.939Z,63.63
2019-05-25T00:56:05.931Z,63.53
2019-05-25T00:57:05.909Z,63.53
2019-05-25T00:58:05.910Z,63.32
2019-05-25T00:59:05.874Z,63.43
2019-05-25T01:00:05.927Z,63.32
2019-05-25T01:01:06.123Z,63.53
2019-05-25T01:02:05.857Z,63.22
2019-05-25T01:03:05.854Z,63.02
2019-05-25T01:04:05.835Z,63.22
2019-05-25T01:05:05.833Z,63.02
2019-05-25T01:06:05.846Z,62.71
2019-05-25T01:07:05.806Z,63.22
2019-05-25T01:08:05.804Z,63.43
2019-05-25T01:09:05.786Z,63.43
2019-05-25T01:10:05.774Z,63.02
2019-05-25T01:11:05.792Z,63.32
2019-05-25T01:12:05.726Z,63.32
2019-05-25T01:13:05.757Z,63.73
2019-05-25T01:14:05.729Z,63.73
2019-05-25T01:15:05.703Z,64.34
2019-05-25T01:16:05.737Z,63.86
2019-05-25T01:17:05.693Z,64.07
2019-05-25T01:18:05.683Z,63.86
2019-05-25T01:19:05.673Z,63.56
2019-05-25T01:20:05.664Z,63.56
2019-05-25T01:21:05.672Z,63.66
2019-05-25T01:22:05.643Z,64.07
2019-05-25T01:23:05.629Z,64.27
2019-05-25T01:24:05.624Z,63.96
2019-05-25T01:25:05.590Z,64.58
2019-05-25T01:26:05.610Z,64.17
2019-05-25T01:27:05.573Z,64.48
2019-05-25T01:28:05.568Z,64.17
2019-05-25T01:29:05.550Z,64.17
2019-05-25T01:30:05.544Z,64.37
2019-05-25T01:31:05.621Z,65.19
2019-05-25T01:32:05.508Z,64.37
2019-05-25T01:33:05.509Z,64.89
2019-05-25T01:34:05.501Z,64.78
2019-05-25T01:35:05.480Z,64.58
2019-05-25T01:36:05.532Z,64.58
2019-05-25T01:37:05.454Z,65.02
2019-05-25T01:38:05.451Z,64.51
2019-05-25T01:39:05.470Z,65.02
2019-05-25T01:40:05.431Z,64.81
2019-05-25T01:41:05.429Z,64.40
2019-05-25T01:42:05.419Z,64.40
2019-05-25T01:43:05.400Z,64.71
2019-05-25T01:44:05.421Z,64.51
2019-05-25T01:45:05.362Z,64.92
2019-05-25T01:46:05.406Z,64.92
2019-05-25T01:47:05.359Z,64.51
2019-05-25T01:48:05.336Z,65.63
2019-05-25T01:49:05.390Z,65.53
2019-05-25T01:50:05.316Z,64.81
2019-05-25T01:51:05.319Z,64.71
2019-05-25T01:52:05.318Z,65.22
2019-05-25T01:53:05.301Z,65.73
2019-05-25T01:54:05.310Z,65.63
2019-05-25T01:55:05.276Z,65.25
2019-05-25T01:56:05.266Z,65.77
2019-05-25T01:57:05.277Z,66.07
2019-05-25T01:58:05.225Z,65.56
2019-05-25T01:59:05.225Z,65.97
2019-05-25T02:00:05.212Z,65.77
2019-05-25T02:01:05.203Z,66.38
2019-05-25T02:02:05.241Z,65.56
2019-05-25T02:03:05.188Z,66.17
2019-05-25T02:04:05.166Z,66.48
2019-05-25T02:05:05.157Z,65.77
2019-05-25T02:06:05.146Z,65.36
2019-05-25T02:07:05.172Z,65.25
2019-05-25T02:08:05.129Z,65.36
2019-05-25T02:09:05.106Z,65.15
2019-05-25T02:10:05.120Z,65.05
2019-05-25T02:11:05.111Z,66.89
2019-05-25T02:12:05.098Z,66.17
2019-05-25T02:13:05.124Z,66.07
2019-05-25T02:14:05.052Z,65.66
2019-05-25T02:15:05.037Z,66.10
2019-05-25T02:16:05.046Z,65.90
2019-05-25T02:17:05.043Z,65.80
2019-05-25T02:18:05.031Z,66.20
2019-05-25T02:19:05.008Z,66.20
2019-05-25T02:20:04.995Z,66.20
2019-05-25T02:21:05.001Z,66.31
2019-05-25T02:22:04.976Z,66.61
2019-05-25T02:23:04.987Z,66.92
2019-05-25T02:24:04.964Z,66.61
2019-05-25T02:25:16.896Z,66.54
2019-05-25T02:26:05.922Z,67.36
2019-05-25T02:27:04.918Z,67.05
2019-05-25T02:28:04.931Z,67.87
2019-05-25T02:29:04.910Z,68.90
2019-05-25T02:30:04.903Z,67.67
2019-05-25T02:31:04.857Z,67.87
2019-05-25T02:32:04.870Z,67.77
2019-05-25T02:33:04.889Z,67.87
2019-05-25T02:34:04.851Z,67.46
2019-05-25T02:35:04.847Z,66.95
2019-05-25T02:36:04.842Z,67.46
2019-05-25T02:37:04.818Z,67.46
2019-05-25T02:38:04.849Z,67.36
2019-05-25T02:39:04.853Z,67.57
2019-05-25T02:40:04.795Z,67.97
2019-05-25T02:41:04.777Z,68.28
2019-05-25T02:42:04.773Z,67.77
2019-05-25T02:43:04.825Z,68.18
2019-05-25T02:44:04.740Z,68.18
2019-05-25T02:45:04.726Z,67.26
2019-05-25T02:46:04.708Z,68.08
2019-05-25T02:47:04.689Z,67.80
2019-05-25T02:48:04.714Z,68.01
2019-05-25T02:49:04.708Z,68.21
2019-05-25T02:50:04.674Z,67.49
2019-05-25T02:51:04.674Z,67.80
2019-05-25T02:52:04.660Z,67.70
2019-05-25T02:53:04.658Z,69.03
2019-05-25T02:54:04.625Z,68.83
2019-05-25T02:55:04.619Z,68.52
2019-05-25T02:56:04.630Z,67.90
2019-05-25T02:57:04.596Z,67.80
2019-05-25T02:58:04.606Z,68.41
2019-05-25T02:59:04.569Z,68.41
2019-05-25T03:00:04.569Z,68.52
2019-05-25T03:01:04.536Z,68.83
2019-05-25T03:02:04.550Z,68.62
2019-05-25T03:03:04.554Z,68.62
2019-05-25T03:04:04.519Z,68.62
2019-05-25T03:05:04.509Z,68.41
2019-05-25T03:06:04.595Z,68.01
2019-05-25T03:07:04.474Z,68.41
2019-05-25T03:08:04.542Z,68.83
2019-05-25T03:09:04.466Z,68.32
2019-05-25T03:10:04.456Z,68.52
2019-05-25T03:11:04.444Z,69.54
2019-05-25T03:12:04.430Z,68.96
2019-05-25T03:13:04.419Z,68.55
2019-05-25T03:14:04.421Z,69.06
2019-05-25T03:15:04.558Z,68.83
2019-05-25T03:16:04.382Z,69.17
2019-05-25T03:17:04.375Z,69.03
2019-05-25T03:18:04.360Z,68.76
2019-05-25T03:19:04.370Z,69.24
2019-05-25T03:20:04.335Z,69.17
2019-05-25T03:21:04.323Z,68.55
2019-05-25T03:22:04.330Z,68.65
2019-05-25T03:23:04.310Z,68.86
2019-05-25T03:24:04.327Z,68.65
2019-05-25T03:25:04.289Z,68.86
2019-05-25T03:26:04.351Z,69.17
2019-05-25T03:27:04.271Z,69.57
2019-05-25T03:28:04.261Z,69.06
2019-05-25T03:29:04.281Z,69.06
2019-05-25T03:30:04.240Z,69.47
2019-05-25T03:31:04.250Z,69.17
2019-05-25T03:32:04.199Z,69.27
2019-05-25T03:33:04.215Z,69.68
2019-05-25T03:34:04.213Z,70.19
2019-05-25T03:35:04.169Z,70.19
2019-05-25T03:36:04.195Z,69.78
2019-05-25T03:37:04.149Z,69.98
2019-05-25T03:38:04.134Z,69.89
2019-05-25T03:39:04.131Z,69.89
2019-05-25T03:40:04.122Z,69.89
2019-05-25T03:41:04.146Z,69.68
2019-05-25T03:42:04.098Z,69.47
2019-05-25T03:43:04.073Z,69.89
2019-05-25T03:44:04.081Z,70.29
2019-05-25T03:45:04.074Z,70.60
2019-05-25T03:46:04.070Z,69.89
2019-05-25T03:47:04.045Z,70.60
2019-05-25T03:48:04.014Z,70.32
2019-05-25T03:49:04.053Z,70.73
2019-05-25T03:50:04.017Z,70.32
2019-05-25T03:51:03.998Z,70.84
2019-05-25T03:52:03.979Z,71.04
2019-05-25T03:53:03.968Z,71.04
2019-05-25T03:54:03.985Z,71.35
2019-05-25T03:55:03.957Z,71.56
2019-05-25T03:56:06.164Z,71.35
2019-05-25T03:57:03.937Z,71.35
2019-05-25T03:58:03.918Z,71.56
2019-05-25T03:59:03.928Z,71.35
2019-05-25T04:00:03.917Z,71.45
2019-05-25T04:01:03.886Z,71.66
2019-05-25T04:02:03.873Z,71.76
2019-05-25T04:03:03.875Z,70.94
2019-05-25T04:04:03.868Z,71.35
2019-05-25T04:05:03.844Z,71.25
2019-05-25T04:06:03.854Z,71.97
2019-05-25T04:07:03.815Z,71.35
2019-05-25T04:08:03.815Z,71.86
2019-05-25T04:09:03.820Z,72.27
2019-05-25T04:10:03.821Z,71.35
2019-05-25T04:11:03.763Z,72.07
2019-05-25T04:12:03.772Z,71.66
2019-05-25T04:13:03.763Z,71.97
2019-05-25T04:14:03.780Z,71.66
2019-05-25T04:15:03.745Z,71.86
2019-05-25T04:16:03.731Z,71.42
2019-05-25T04:17:03.711Z,71.11
2019-05-25T04:18:03.710Z,71.73
2019-05-25T04:19:03.720Z,70.91
2019-05-25T04:20:03.686Z,71.52
2019-05-25T04:21:03.672Z,71.01
2019-05-25T04:22:03.671Z,71.01
2019-05-25T04:23:03.649Z,71.11
2019-05-25T04:24:03.661Z,71.01
2019-05-25T04:25:03.635Z,71.01
2019-05-25T04:26:03.619Z,70.98
2019-05-25T04:27:03.608Z,70.36
2019-05-25T04:28:03.609Z,70.36
2019-05-25T04:29:03.619Z,70.47
2019-05-25T04:30:03.569Z,70.67
2019-05-25T04:31:03.566Z,70.67
2019-05-25T04:32:03.530Z,70.57
2019-05-25T04:33:03.538Z,71.04
2019-05-25T04:34:03.579Z,70.12
2019-05-25T04:35:03.498Z,70.33
2019-05-25T04:36:03.510Z,70.20
2019-05-25T04:37:03.504Z,69.89
2019-05-25T04:38:03.468Z,69.68
2019-05-25T04:39:03.503Z,69.48
2019-05-25T04:40:03.459Z,69.75
2019-05-25T04:41:03.447Z,69.45
2019-05-25T04:42:03.444Z,69.11
2019-05-25T04:43:03.424Z,68.60
2019-05-25T04:44:03.429Z,68.16
2019-05-25T04:45:03.406Z,68.16
2019-05-25T04:46:03.387Z,67.92
2019-05-25T04:47:03.375Z,67.58
2019-05-25T04:48:03.356Z,66.33
2019-05-25T04:49:03.367Z,66.02
2019-05-25T04:50:03.339Z,66.12
2019-05-25T04:51:03.332Z,65.99
2019-05-25T04:52:03.325Z,64.76
2019-05-25T04:53:03.329Z,64.43
2019-05-25T04:54:03.323Z,65.14
2019-05-25T04:55:03.288Z,64.73
2019-05-25T04:56:03.289Z,64.53
2019-05-25T04:57:03.471Z,65.86
2019-05-25T04:58:03.257Z,65.86
2019-05-25T04:59:03.316Z,64.90
2019-05-25T05:00:03.245Z,64.84
2019-05-25T05:01:03.226Z,65.25
2019-05-25T05:02:03.236Z,65.31
2019-05-25T05:03:03.207Z,65.42
2019-05-25T05:04:03.202Z,64.60
2019-05-25T05:05:03.199Z,64.60
2019-05-25T05:06:03.190Z,64.17
2019-05-25T05:07:03.159Z,64.57
2019-05-25T05:08:03.179Z,64.78
2019-05-25T05:09:03.153Z,64.40
2019-05-25T05:10:03.506Z,64.60
2019-05-25T05:11:03.121Z,65.11
2019-05-25T05:12:03.097Z,64.81
2019-05-25T05:13:03.092Z,64.81
2019-05-25T05:14:03.072Z,65.11
2019-05-25T05:15:03.093Z,65.11
2019-05-25T05:16:03.093Z,65.55
2019-05-25T05:17:03.038Z,65.86
2019-05-25T05:18:03.049Z,67.11
2019-05-25T05:19:03.020Z,67.01
2019-05-25T05:20:03.073Z,67.62
2019-05-25T05:21:03.039Z,67.52
2019-05-25T05:22:05.796Z,67.52
2019-05-25T05:23:03.009Z,67.52
2019-05-25T05:24:02.984Z,67.85
2019-05-25T05:25:02.989Z,68.16
2019-05-25T05:26:02.962Z,68.37
2019-05-25T05:27:02.949Z,68.19
2019-05-25T05:28:02.940Z,69.21
2019-05-25T05:29:02.929Z,69.93
2019-05-25T05:30:02.947Z,69.82
2019-05-25T05:31:02.919Z,70.03
2019-05-25T05:32:02.885Z,69.42
2019-05-25T05:33:02.919Z,69.52
2019-05-25T05:34:02.860Z,69.52
2019-05-25T05:35:02.881Z,69.21
2019-05-25T05:36:02.854Z,69.90
2019-05-25T05:37:02.840Z,69.69
2019-05-25T05:38:02.839Z,68.84
2019-05-25T05:39:02.819Z,68.95
2019-05-25T05:40:02.778Z,68.33
2019-05-25T05:41:02.839Z,68.33
2019-05-25T05:42:02.773Z,68.54
2019-05-25T05:43:02.760Z,68.44
2019-05-25T05:44:02.758Z,68.33
2019-05-25T05:45:02.736Z,68.74
2019-05-25T05:46:02.738Z,68.84
2019-05-25T05:47:02.716Z,68.74
2019-05-25T05:48:02.727Z,68.23
2019-05-25T05:49:02.687Z,68.44
2019-05-25T05:50:02.676Z,68.30
2019-05-25T05:51:02.700Z,67.46
2019-05-25T05:52:02.669Z,67.86
2019-05-25T05:53:02.652Z,67.52
2019-05-25T05:54:02.646Z,66.71
2019-05-25T05:55:02.639Z,66.88
2019-05-25T05:56:02.639Z,64.58
2019-05-25T05:57:11.675Z,63.60
2019-05-25T05:58:03.610Z,62.60
2019-05-25T05:59:02.603Z,60.16
2019-05-25T06:00:02.590Z,58.11
2019-05-25T06:01:02.608Z,56.68
2019-05-25T06:02:02.576Z,54.73
2019-05-25T06:03:02.550Z,51.31
2019-05-25T06:04:02.585Z,48.85
2019-05-25T06:05:03.148Z,49.68
2019-05-25T06:06:02.533Z,47.27
2019-05-25T06:07:02.495Z,47.15
2019-05-25T06:08:02.496Z,45.50
2019-05-25T06:09:02.477Z,44.21
2019-05-25T06:10:02.478Z,42.10
2019-05-25T06:11:02.492Z,41.99
2019-05-25T06:12:02.446Z,44.30
2019-05-25T06:13:02.441Z,45.40
2019-05-25T06:14:02.425Z,44.32
2019-05-25T06:15:02.577Z,43.63
2019-05-25T06:16:02.425Z,46.01
2019-05-25T06:17:02.405Z,43.43
2019-05-25T06:18:02.402Z,41.16
2019-05-25T06:19:02.371Z,39.01
2019-05-25T06:20:02.374Z,38.96
2019-05-25T06:21:02.401Z,41.38
2019-05-25T06:22:02.349Z,39.80
2019-05-25T06:23:02.361Z,39.53
2019-05-25T06:24:02.335Z,39.72
2019-05-25T06:25:02.309Z,41.30
2019-05-25T06:26:02.379Z,44.32
2019-05-25T06:27:02.288Z,45.58
2019-05-25T06:28:02.287Z,46.20
2019-05-25T06:29:02.266Z,50.51
2019-05-25T06:30:02.259Z,53.27
2019-05-25T06:31:02.258Z,55.49
2019-05-25T06:32:02.277Z,55.59
2019-05-25T06:33:02.239Z,56.24
2019-05-25T06:34:02.231Z,55.24
2019-05-25T06:35:02.230Z,54.13
2019-05-25T06:36:02.208Z,57.76
2019-05-25T06:37:02.268Z,57.00
2019-05-25T06:38:02.189Z,52.39
2019-05-25T06:39:02.216Z,48.91
2019-05-25T06:40:02.179Z,48.86
2019-05-25T06:41:02.158Z,48.91
2019-05-25T06:42:02.271Z,49.58
2019-05-25T06:43:02.147Z,51.94
2019-05-25T06:44:02.140Z,50.35
2019-05-25T06:45:02.134Z,53.34
2019-05-25T06:46:02.108Z,53.47
2019-05-25T06:47:02.136Z,56.55
2019-05-25T06:48:02.081Z,56.73
2019-05-25T06:49:02.078Z,58.54
2019-05-25T06:50:02.069Z,55.39
2019-05-25T06:51:02.054Z,52.09
2019-05-25T06:52:02.079Z,47.58
2019-05-25T06:53:02.034Z,48.51
2019-05-25T06:54:02.035Z,51.11
2019-05-25T06:55:02.047Z,53.45
2019-05-25T06:56:02.017Z,54.86
2019-05-25T06:57:02.004Z,55.11
2019-05-25T06:58:01.993Z,56.04
2019-05-25T06:59:01.962Z,52.26
2019-05-25T07:00:01.987Z,48.69
2019-05-25T07:01:01.976Z,49.63
2019-05-25T07:02:01.929Z,50.44
2019-05-25T07:03:01.970Z,49.19
2019-05-25T07:04:01.923Z,46.43
2019-05-25T07:05:01.921Z,46.56
2019-05-25T07:06:01.924Z,46.06
2019-05-25T07:07:01.906Z,45.57
2019-05-25T07:08:01.922Z,42.45
2019-05-25T07:09:01.892Z,41.17
2019-05-25T07:10:01.903Z,41.24
2019-05-25T07:11:01.852Z,39.45
2019-05-25T07:12:01.873Z,40.66
2019-05-25T07:13:01.891Z,40.03
2019-05-25T07:14:01.824Z,39.28
2019-05-25T07:15:01.828Z,38.32
2019-05-25T07:16:01.859Z,42.11
2019-05-25T07:17:01.789Z,45.53
2019-05-25T07:18:01.778Z,46.36
2019-05-25T07:19:01.794Z,46.03
2019-05-25T07:20:01.811Z,48.74
2019-05-25T07:21:01.761Z,51.56
2019-05-25T07:22:01.749Z,52.04
2019-05-25T07:23:01.754Z,52.42
2019-05-25T07:24:01.757Z,52.14
2019-05-25T07:25:01.720Z,52.14
2019-05-25T07:26:01.708Z,51.37
2019-05-25T07:27:01.704Z,49.79
2019-05-25T07:28:01.691Z,49.09
2019-05-25T07:29:01.713Z,48.37
2019-05-25T07:30:01.684Z,47.42
2019-05-25T07:31:01.659Z,47.15
2019-05-25T07:32:01.643Z,47.77
2019-05-25T07:33:01.661Z,48.49
2019-05-25T07:34:01.697Z,49.37
2019-05-25T07:35:01.617Z,52.17
2019-05-25T07:36:05.564Z,54.15
2019-05-25T07:37:02.611Z,55.28
2019-05-25T07:38:01.597Z,55.43
2019-05-25T07:39:01.612Z,57.23
2019-05-25T07:40:01.590Z,59.09
2019-05-25T07:41:01.560Z,60.36
2019-05-25T07:42:01.553Z,61.68
2019-05-25T07:43:01.534Z,61.00
2019-05-25T07:44:01.629Z,61.47
2019-05-25T07:45:01.520Z,61.24
2019-05-25T07:46:01.520Z,59.90
2019-05-25T07:47:01.532Z,58.98
2019-05-25T07:48:01.474Z,55.38
2019-05-25T07:49:01.494Z,54.60
2019-05-25T07:50:01.474Z,52.69
2019-05-25T07:51:01.450Z,50.52
2019-05-25T07:52:02.804Z,47.95
2019-05-25T07:53:01.443Z,48.14
2019-05-25T07:54:01.449Z,48.99
2019-05-25T07:55:01.514Z,51.79
2019-05-25T07:56:01.396Z,49.22
2019-05-25T07:57:01.388Z,48.57
2019-05-25T07:58:15.847Z,48.25
2019-05-25T07:59:02.406Z,50.79
2019-05-25T08:00:01.356Z,49.57
2019-05-25T08:01:01.356Z,48.99
2019-05-25T08:02:01.407Z,48.92
2019-05-25T08:03:01.348Z,49.40
2019-05-25T08:04:01.374Z,50.37
2019-05-25T08:05:01.351Z,49.48
2019-05-25T08:06:01.290Z,45.79
2019-05-25T08:07:01.344Z,42.75
2019-05-25T08:08:01.650Z,42.83
2019-05-25T08:09:01.285Z,46.53
2019-05-25T08:10:01.338Z,40.26
2019-05-25T08:11:01.244Z,41.14
2019-05-25T08:12:01.234Z,40.50
2019-05-25T08:13:01.224Z,40.33
2019-05-25T08:14:01.277Z,43.34
2019-05-25T08:15:01.221Z,41.71
2019-05-25T08:16:01.190Z,42.85
2019-05-25T08:17:01.320Z,44.79
2019-05-25T08:18:01.199Z,47.90
2019-05-25T08:19:01.211Z,46.44
2019-05-25T08:20:01.160Z,44.82
2019-05-25T08:21:01.367Z,44.06
2019-05-25T08:22:01.143Z,42.31
2019-05-25T08:23:01.136Z,43.56
2019-05-25T08:24:01.150Z,42.65
2019-05-25T08:25:01.106Z,40.15
2019-05-25T08:26:01.113Z,41.28
2019-05-25T08:27:01.110Z,39.81
2019-05-25T08:28:01.074Z,38.49
2019-05-25T08:29:01.145Z,42.21
2019-05-25T08:30:01.074Z,37.45
2019-05-25T08:31:01.596Z,39.78
2019-05-25T08:32:01.044Z,37.39
2019-05-25T08:33:01.033Z,36.88
2019-05-25T08:34:01.032Z,41.36
2019-05-25T08:35:01.053Z,37.48
2019-05-25T08:36:01.016Z,37.60
2019-05-25T08:37:01.005Z,41.28
2019-05-25T08:38:00.992Z,45.01
2019-05-25T08:39:00.991Z,44.28
2019-05-25T08:40:00.993Z,41.30
2019-05-25T08:41:00.963Z,41.75
2019-05-25T08:42:00.947Z,43.62
2019-05-25T08:43:00.954Z,43.16
2019-05-25T08:44:04.285Z,43.89
2019-05-25T08:45:00.939Z,40.07
2019-05-25T08:46:00.904Z,38.70
2019-05-25T08:47:00.913Z,38.62
2019-05-25T08:48:00.901Z,37.00
2019-05-25T08:49:00.910Z,37.79
2019-05-25T08:50:00.895Z,36.88
2019-05-25T08:51:00.881Z,38.88
2019-05-25T08:52:04.078Z,42.31
2019-05-25T08:53:00.832Z,43.94
2019-05-25T08:54:00.852Z,44.31
2019-05-25T08:55:00.865Z,44.17
2019-05-25T08:56:00.840Z,45.83
2019-05-25T08:57:00.818Z,48.47
2019-05-25T08:58:00.817Z,48.37
2019-05-25T08:59:00.771Z,47.37
2019-05-25T09:00:00.837Z,49.05
2019-05-25T09:01:00.787Z,49.73
2019-05-25T09:02:00.776Z,46.84
2019-05-25T09:03:00.735Z,46.61
2019-05-25T09:04:00.736Z,47.05
2019-05-25T09:05:00.744Z,50.46
2019-05-25T09:06:00.708Z,52.17
2019-05-25T09:07:00.727Z,53.50
2019-05-25T09:08:00.726Z,53.45
2019-05-25T09:09:00.697Z,50.62
2019-05-25T09:10:00.703Z,48.68
2019-05-25T09:11:00.675Z,47.00
2019-05-25T09:12:02.376Z,48.29
2019-05-25T09:13:00.681Z,49.55
2019-05-25T09:14:00.626Z,47.69
2019-05-25T09:15:00.647Z,45.23
2019-05-25T09:16:00.625Z,43.38
2019-05-25T09:17:00.608Z,44.68
2019-05-25T09:18:00.605Z,43.27
2019-05-25T09:19:00.595Z,43.92
2019-05-25T09:20:00.585Z,43.58
2019-05-25T09:21:00.563Z,42.97
2019-05-25T09:22:03.158Z,44.35
2019-05-25T09:23:00.560Z,45.89
2019-05-25T09:24:00.729Z,45.24
2019-05-25T09:25:00.559Z,42.79
2019-05-25T09:26:00.499Z,44.70
2019-05-25T09:27:00.527Z,44.20
2019-05-25T09:28:00.503Z,43.05
2019-05-25T09:29:04.429Z,42.45
2019-05-25T09:30:00.493Z,43.44
2019-05-25T09:31:00.446Z,39.21
2019-05-25T09:32:00.466Z,41.85
2019-05-25T09:33:00.474Z,41.16
2019-05-25T09:34:00.467Z,39.92
2019-05-25T09:35:00.438Z,42.51
2019-05-25T09:36:00.409Z,40.86
2019-05-25T09:37:00.396Z,42.97
2019-05-25T09:38:00.399Z,43.15
2019-05-25T09:39:00.383Z,43.60
2019-05-25T09:40:00.435Z,42.19
2019-05-25T09:41:00.344Z,39.97
2019-05-25T09:42:00.339Z,41.28
2019-05-25T09:43:00.368Z,41.58
2019-05-25T09:44:00.331Z,41.60
2019-05-25T09:45:00.344Z,43.70
2019-05-25T09:46:03.125Z,42.17
2019-05-25T09:47:00.302Z,42.47
2019-05-25T09:48:00.306Z,43.52
2019-05-25T09:49:00.279Z,44.24
2019-05-25T09:50:00.310Z,43.16
2019-05-25T09:51:00.261Z,43.08
2019-05-25T09:52:00.241Z,44.23
2019-05-25T09:53:00.257Z,43.51
2019-05-25T09:54:00.258Z,46.19
2019-05-25T09:55:00.248Z,48.00
2019-05-25T09:56:00.212Z,45.81
2019-05-25T09:57:00.214Z,46.58
2019-05-25T09:58:00.205Z,46.73
2019-05-25T09:59:00.193Z,46.99
2019-05-25T10:00:00.196Z,43.80
2019-05-25T10:01:00.184Z,45.84
2019-05-25T10:02:00.150Z,45.56
2019-05-25T10:03:00.137Z,48.18
2019-05-25T10:04:00.148Z,47.45
2019-05-25T10:05:00.150Z,46.16
2019-05-25T10:06:00.163Z,46.28
2019-05-25T10:07:00.100Z,46.62
2019-05-25T10:08:00.094Z,45.71
2019-05-25T10:09:00.072Z,48.65
2019-05-25T10:10:00.093Z,48.01
2019-05-25T10:11:00.089Z,45.24
2019-05-25T10:12:00.063Z,45.84
2019-05-25T10:13:00.036Z,46.72
2019-05-25T10:14:00.032Z,45.87
2019-05-25T10:14:59.999Z,46.09
2019-05-25T10:16:00.017Z,46.00
2019-05-25T10:16:59.987Z,45.10
2019-05-25T10:17:59.982Z,44.59
2019-05-25T10:18:59.972Z,47.03
2019-05-25T10:19:59.952Z,48.68
2019-05-25T10:20:59.992Z,44.34
2019-05-25T10:21:59.973Z,41.87
2019-05-25T10:22:59.933Z,44.62
2019-05-25T10:23:59.928Z,43.52
2019-05-25T10:24:59.922Z,46.42
2019-05-25T10:25:59.930Z,43.77
2019-05-25T10:26:59.911Z,46.56
2019-05-25T10:27:59.871Z,43.77
2019-05-25T10:28:59.905Z,46.54
2019-05-25T10:29:59.875Z,44.84
2019-05-25T10:30:59.852Z,47.91
2019-05-25T10:31:59.872Z,45.74
2019-05-25T10:32:59.848Z,48.85
2019-05-25T10:33:59.834Z,48.23
2019-05-25T10:34:59.818Z,45.94
2019-05-25T10:35:59.872Z,44.45
2019-05-25T10:36:59.811Z,45.68
2019-05-25T10:37:59.788Z,48.28
2019-05-25T10:38:59.765Z,46.22
2019-05-25T10:39:59.754Z,47.84
2019-05-25T10:40:59.768Z,45.06
2019-05-25T10:41:59.765Z,44.76
2019-05-25T10:42:59.732Z,44.42
2019-05-25T10:43:59.735Z,46.73
2019-05-25T10:44:59.707Z,44.90
2019-05-25T10:45:59.706Z,44.16
2019-05-25T10:46:59.739Z,42.07
2019-05-25T10:47:59.699Z,43.74
2019-05-25T10:48:59.668Z,42.94
2019-05-25T10:49:59.661Z,42.83
2019-05-25T10:50:59.656Z,43.96
2019-05-25T10:51:59.686Z,46.27
2019-05-25T10:52:59.633Z,43.63
2019-05-25T10:53:59.613Z,44.87
2019-05-25T10:54:59.619Z,44.67
2019-05-25T10:55:59.607Z,43.07
2019-05-25T10:56:59.602Z,43.15
2019-05-25T10:57:59.599Z,44.45
2019-05-25T10:58:59.581Z,47.02
2019-05-25T10:59:59.551Z,44.84
2019-05-25T11:00:59.558Z,46.01
2019-05-25T11:01:59.553Z,45.97
2019-05-25T11:02:59.567Z,47.19
2019-05-25T11:03:59.533Z,45.65
2019-05-25T11:04:59.514Z,46.13
2019-05-25T11:05:59.515Z,45.21
2019-05-25T11:06:59.490Z,46.78
2019-05-25T11:07:59.474Z,44.99
2019-05-25T11:08:59.458Z,45.48
2019-05-25T11:09:59.451Z,44.29
2019-05-25T11:10:59.455Z,45.31
2019-05-25T11:11:59.461Z,44.09
2019-05-25T11:12:59.422Z,45.90
2019-05-25T11:13:59.417Z,45.65
2019-05-25T11:14:59.403Z,47.25
2019-05-25T11:15:59.392Z,47.20
2019-05-25T11:16:59.414Z,48.28
2019-05-25T11:17:59.372Z,44.87
2019-05-25T11:18:59.360Z,44.07
2019-05-25T11:19:59.358Z,44.94
2019-05-25T11:20:59.333Z,41.69
2019-05-25T11:21:59.368Z,42.72
2019-05-25T11:22:59.347Z,42.37
2019-05-25T11:23:59.318Z,43.34
2019-05-25T11:24:59.294Z,43.22
2019-05-25T11:25:59.294Z,40.76
2019-05-25T11:26:59.814Z,39.17
2019-05-25T11:27:59.289Z,40.48
2019-05-25T11:28:59.241Z,42.45
2019-05-25T11:30:08.479Z,41.44
2019-05-25T11:31:00.263Z,40.42
2019-05-25T11:32:03.991Z,39.69
2019-05-25T11:33:00.234Z,41.20
2019-05-25T11:33:59.195Z,41.16
2019-05-25T11:34:59.223Z,44.04
2019-05-25T11:35:59.172Z,42.97
2019-05-25T11:36:59.172Z,42.31
2019-05-25T11:37:59.202Z,43.44
2019-05-25T11:38:59.145Z,42.75
2019-05-25T11:39:59.146Z,42.17
2019-05-25T11:40:59.128Z,43.05
2019-05-25T11:41:59.123Z,41.83
2019-05-25T11:42:59.134Z,41.00
2019-05-25T11:43:59.103Z,39.59
2019-05-25T11:44:59.102Z,38.96
2019-05-25T11:45:59.085Z,37.59
2019-05-25T11:46:59.077Z,39.09
2019-05-25T11:47:59.085Z,39.59
2019-05-25T11:48:59.052Z,39.61
2019-05-25T11:49:59.042Z,39.57
2019-05-25T11:50:59.033Z,42.29
2019-05-25T11:51:59.033Z,42.71
2019-05-25T11:52:59.034Z,43.23
2019-05-25T11:53:58.987Z,43.77
2019-05-25T11:54:58.987Z,46.23
2019-05-25T11:55:58.976Z,44.73
2019-05-25T11:56:58.966Z,44.43
2019-05-25T11:57:58.983Z,44.91
2019-05-25T11:58:58.944Z,44.79
2019-05-25T11:59:58.978Z,47.28
2019-05-25T12:00:58.927Z,43.33
2019-05-25T12:01:58.908Z,46.39
2019-05-25T12:02:58.917Z,46.80
2019-05-25T12:03:58.918Z,46.45
2019-05-25T12:04:58.922Z,46.50
2019-05-25T12:05:58.876Z,44.41
2019-05-25T12:06:58.863Z,46.01
2019-05-25T12:07:58.859Z,44.01
2019-05-25T12:08:58.866Z,42.83
2019-05-25T12:09:58.877Z,45.10
2019-05-25T12:10:58.804Z,43.91
2019-05-25T12:11:58.846Z,45.68
2019-05-25T12:12:58.788Z,45.10
2019-05-25T12:13:58.812Z,44.81
2019-05-25T12:14:58.794Z,44.23
2019-05-25T12:15:58.766Z,45.85
2019-05-25T12:16:58.772Z,47.15
2019-05-25T12:17:58.744Z,46.70
2019-05-25T12:18:58.750Z,45.71
2019-05-25T12:19:58.725Z,45.01
2019-05-25T12:20:58.737Z,43.17
2019-05-25T12:21:58.718Z,44.87
2019-05-25T12:22:58.698Z,44.49
2019-05-25T12:23:58.754Z,44.83
2019-05-25T12:24:58.663Z,45.93
2019-05-25T12:25:58.694Z,46.27
2019-05-25T12:26:58.662Z,46.69
2019-05-25T12:27:58.654Z,47.09
2019-05-25T12:28:58.667Z,45.29
2019-05-25T12:29:58.616Z,46.19
2019-05-25T12:30:58.606Z,45.00
2019-05-25T12:32:03.987Z,45.79
2019-05-25T12:32:59.588Z,45.39
2019-05-25T12:33:58.619Z,45.92
2019-05-25T12:34:58.555Z,45.36
2019-05-25T12:35:58.545Z,47.06
2019-05-25T12:36:58.555Z,46.26
2019-05-25T12:37:58.524Z,46.14
2019-05-25T12:38:58.527Z,46.22
2019-05-25T12:39:58.509Z,44.62
2019-05-25T12:40:58.509Z,44.20
2019-05-25T12:41:58.506Z,43.29
2019-05-25T12:42:58.478Z,43.19
2019-05-25T12:43:58.498Z,45.29
2019-05-25T12:44:58.477Z,42.41
2019-05-25T12:45:58.436Z,42.96
2019-05-25T12:46:58.425Z,43.93
2019-05-25T12:47:58.465Z,45.04
2019-05-25T12:48:58.438Z,44.93
2019-05-25T12:49:58.401Z,46.56
2019-05-25T12:50:58.406Z,44.66
2019-05-25T12:51:58.392Z,46.56